Accueil
METAR-TAF:

METAR-TAF

Aéroports :

Hot Springs, Arkansas, États-Unis

latitude: 34-28-41N, longitude: 093-05-46W, altitude: 165 m

Observation

Le bulletin a été fait il y a 22 minutes, à 15:53 UTC
Vent 3 kt de direction variable
Température 5°C
Humidité 41%
Pression 1034 hPa
Visibilité: 16.1 km
Ciel clair

METAR: KHOT 191553Z AUTO VRB03KT 10SM CLR 05/M07 A3053 RMK AO2 SLP339 T00501067

Heure: 10:15 (16:15 UTC)

Prévision

Le bulletin a été fait il y a 4 heures et 48 minutes, à 11:27 UTC
Prévision valable du 19 à 12 UTC au 20 à 12 UTC
Vent kt de nord
Visibilité: 10 km
Ciel clair
A partir de 19 à 1500 UTC
Vent 9 kt de nord/nord-ouest
Visibilité: 10 km
Ciel clair
A partir de 20 à 0000 UTC
Vent 3 kt de nord
Visibilité: 10 km
Ciel clair

TAF: KHOT 191127Z 1912/2012 00000KT P6SM SKC FM191500 34009KT P6SM SKC FM200000 35003KT P6SM SKC

Observations et prévisions météorologiques de plus de 4000 aéroports (messages METAR et TAF).

Les stations disponibles sont représentées par des disques jaunes et rouges sur la carte.

Passer la souris dessus pour voir le nom de la station.

Cliquer dessus pour voir les observations et prévisions météorologiques.

Pour changer de carte: cliquez sur les boutons verts avec une croix noire pour zoomer, sur le bouton vert avec un tiret pour effectuer un zoom arrière, ou sur les flèches vertes pour les cartes adjacentes.


METAR-TAF: